Etusivu
METAR-TAF:

METAR-TAF

Lentoasemat :

Zonguldak, Turkki

Leveyspiiri: 41-27N, Pituuspiiri: 031-48E, korkeus merenpinnasta: 136 m

METAR: puuttuu

Aika: 20:30 (17:30 UTC)

Sääennuste

Tämä raportti tehtiin 3 tuntia ja 50 minuuttia sitten, kello 13.40 UTC
Ennuste voimassa 22. päivästä klo 15 UTC - 22. päivään klo 24 UTC
Tuuli 2 kn eri suunnista
Näkyvyys 10 km tai enemmän
Hajanaisia pilviä 4000 ft:n korkeudessa
Hajonneita pilviä 10000 ft:n korkeudessa
Ajoittain
22. päivästä klo 15 UTC - 22. päivään klo 19 UTC
Hajonneita pilviä 2500 ft:n korkeudessa
Hajonneita pilviä 8000 ft:n korkeudessa
heikkoja vesikuuroja

TAF: LTAS 221340Z 2215/2224 VRB02KT 9999 SCT040 BKN100 TEMPO 2215/2219 -SHRA BKN025 BKN080

Säähavainnot ja -ennusteet yli 4000 lentoasemalta (METAR- ja TAF-raportit).

Käytössä olevat sääasemat on merkitty karttaan keltaisilla ja punaisilla pisteillä.

Aseta hiiri pisteen päälle nähdäksesi sääaseman nimen.

Klikkaa sitten nähdäksesi säähavainnot ja -ennusteet.

Kartan vaihtaminen: klikkaa mustalla rastilla varustettuja vihreitä pisteitä, niin voit zoomata sisään; viivalla varustettua vihreää pistettä, niin voit zoomata ulos tai vihreitä nuolia, niin pääset viereisille kartoille.


METAR-TAF: